This is the latest recevied weather packets stored in our database for station/object KD4PMP. If no packets are shown the sender has not sent any weather packets the latest 10 day(s).
| Time | Temp. | Humidity | Pressure | Rain* | Wind** | Luminosity | Snow |
|---|---|---|---|---|---|---|---|
| 1777645212 | 15.56° C | 65% | 1015 hPa | 0 mm | - | - | - |
| 1777644612 | 15° C | 68% | 1015.1 hPa | 0 mm | - | - | - |
| 1777643411 | 13.89° C | 71% | 1015.1 hPa | 0 mm | - | - | - |
| 1777642810 | 13.33° C | 71% | 1014.9 hPa | 0 mm | - | - | - |
| 1777642210 | 12.78° C | 78% | 1014.9 hPa | 0 mm | - | - | - |
| 1777641610 | 11.67° C | 82% | 1015 hPa | 0 mm | - | - | - |
| 1777641009 | 11.67° C | 83% | 1015.1 hPa | 0 mm | - | - | - |
| 1777638609 | 8.89° C | 94% | 1015.1 hPa | 0 mm | - | - | - |
| 1777638008 | 8.33° C | 94% | 1015 hPa | 0 mm | - | - | - |
| 1777635607 | 6.67° C | 95% | 1014.3 hPa | 0 mm | - | - | - |
| 1777635007 | 6.67° C | 95% | 1014.2 hPa | 0 mm | - | - | - |
| 1777634406 | 6.67° C | 94% | 1014.3 hPa | 0 mm | - | - | - |
| 1777633806 | 6.67° C | 94% | 1014.2 hPa | 0 mm | - | - | - |
| 1777633206 | 6.67° C | 94% | 1014 hPa | 0 mm | - | - | - |
| 1777632606 | 6.67° C | 94% | 1014 hPa | 0 mm | - | - | - |
| 1777632005 | 6.67° C | 94% | 1013.7 hPa | 0 mm | - | - | - |
| 1777631405 | 6.67° C | 94% | 1013.8 hPa | 0 mm | - | - | - |
| 1777630805 | 7.22° C | 94% | 1013.9 hPa | 0 mm | - | - | - |
| 1777630204 | 7.22° C | 94% | 1013.9 hPa | 0 mm | - | - | - |
| 1777629604 | 7.22° C | 94% | 1013.8 hPa | 0 mm | - | - | - |
| 1777629004 | 7.22° C | 94% | 1013.8 hPa | 0 mm | - | - | - |
| 1777628403 | 7.22° C | 94% | 1013.9 hPa | 0 mm | - | - | - |
| 1777627803 | 7.22° C | 93% | 1014 hPa | 0 mm | - | - | - |
| 1777627203 | 7.78° C | 93% | 1014 hPa | 0 mm | - | - | - |
| 1777626603 | 7.78° C | 93% | 1014 hPa | 0 mm | - | - | - |
* Rain latest hour (hover to see other rain measurements)
** Current wind speed in m/s (hover to see current wind gust speed)